Meadow Lake, CO

11:21 AM MDT on May 26, 2017 (GMT -0600)
Meadow Lake

Weather History for KFLY - April, 2013

Change the Weather History Date:

Monday, April 1, 2013

  Actual Average (KCOS) Record (KCOS)
Temperature  
Mean Temperature 38 °F -  
Max Temperature 49 °F 52 °F 81 °F (2012)
Min Temperature 28 °F 27 °F 9 °F (1896)
Degree Days  
Heating Degree Days 26    
Moisture  
Dew Point 25 °F    
Average Humidity 62    
Maximum Humidity 90    
Minimum Humidity 37    
Precipitation  
Precipitation 0.00 in - - ()
Sea Level Pressure  
Sea Level Pressure 30.11 in    
Wind  
Wind Speed 10 mph (SSE)    
Max Wind Speed 20 mph    
Max Gust Speed 24 mph    
Visibility 10 miles    
Events Thunderstorm    
Averages and records for this station are not official NWS values.
T = Trace of Precipitation, MM = Missing Value Source: NWS Daily Summary

Daily Weather History Graph

Daily Weather History Graph

Search for Another Location

Airport or City:

Trip Planner

Search our weather history database for the weather conditions in past years. The results will help you decide how hot, cold, wet, or windy it might be!

Date:

Astronomy

Apr. 01, 2013 Rise Set
Actual Time 6:42 AM MDT 7:22 PM MDT
Civil Twilight 6:15 AM MDT 7:49 PM MDT
Nautical Twilight 5:43 AM MDT 8:20 PM MDT
Astronomical Twilight 5:11 AM MDT 8:53 PM MDT
Moon 12:30 AM MDT (4/1) 10:34 AM MDT (4/1)
Length of Visible Light 13h 33m
Length of Day
12h 39m
Waning Gibbous, 66% of the Moon is Illuminated
Apr 1
Waning Gibbous
Apr 2
Last Quarter
Apr 10
New
Apr 18
First Quarter
Apr 25
Full

Hourly Weather History & Observations

Time (MDT) Temp. Windchill Dew Point Humidity Pressure Visibility Wind Dir Wind Speed Gust Speed Precip Events Conditions
12:15 AM 41.7 °F 36.1 °F 18.3 °F 39% 30.10 in 10.0 mi North 9.2 mph - N/A   Mostly Cloudy
12:35 AM 41.0 °F 34.3 °F 18.3 °F 40% 30.12 in 10.0 mi North 11.5 mph - N/A   Clear
12:55 AM 40.6 °F 33.8 °F 18.9 °F 42% 30.13 in 10.0 mi North 11.5 mph - N/A   Clear
1:15 AM 40.1 °F 33.2 °F 19.8 °F 44% 30.14 in 10.0 mi North 11.5 mph 18.4 mph N/A   Clear
1:35 AM 39.0 °F 31.4 °F 20.3 °F 47% 30.14 in 10.0 mi North 12.7 mph - N/A   Clear
1:55 AM 37.8 °F 29.8 °F 21.9 °F 53% 30.14 in 10.0 mi North 12.7 mph 18.4 mph N/A   Clear
2:15 AM 36.9 °F 27.8 °F 22.8 °F 57% 30.14 in 10.0 mi North 15.0 mph - N/A   Clear
2:35 AM 35.6 °F 26.2 °F 23.5 °F 62% 30.13 in 10.0 mi North 15.0 mph - N/A   Clear
2:55 AM 34.9 °F 26.2 °F 23.7 °F 64% 30.13 in 10.0 mi North 12.7 mph - N/A   Clear
3:15 AM 34.2 °F 25.7 °F 23.9 °F 66% 30.13 in 10.0 mi North 11.5 mph 17.3 mph N/A   Clear
3:35 AM 34.3 °F 26.5 °F 23.9 °F 66% 30.13 in 10.0 mi NNW 10.4 mph - N/A   Clear
4:15 AM 34.3 °F 27.0 °F 23.9 °F 66% 30.13 in 10.0 mi North 9.2 mph - N/A   Clear
4:35 AM 34.0 °F 27.2 °F 23.7 °F 66% 30.12 in 10.0 mi North 8.1 mph - N/A   Clear
4:55 AM 33.4 °F 27.3 °F 23.7 °F 68% 30.13 in 10.0 mi North 6.9 mph - N/A   Clear
5:15 AM 32.9 °F 26.7 °F 23.7 °F 69% 30.13 in 10.0 mi North 6.9 mph - N/A   Clear
5:35 AM 32.2 °F 25.8 °F 23.7 °F 71% 30.14 in 10.0 mi North 6.9 mph - N/A   Clear
5:55 AM 32.0 °F 28.7 °F 23.5 °F 71% 30.14 in 10.0 mi North 3.5 mph - N/A   Clear
6:15 AM 29.7 °F - 22.6 °F 75% 30.15 in 10.0 mi Calm Calm - N/A   Clear
6:35 AM 29.3 °F - 23.0 °F 77% 30.15 in 10.0 mi Calm Calm - N/A   Clear
6:55 AM 29.1 °F - 22.5 °F 76% 30.16 in 10.0 mi Calm Calm - N/A   Clear
7:15 AM 29.3 °F - 23.9 °F 80% 30.16 in 10.0 mi Calm Calm - N/A   Clear
7:35 AM 32.4 °F 26.0 °F 25.5 °F 76% 30.17 in 10.0 mi SSW 6.9 mph - N/A   Clear
7:55 AM 35.6 °F 29.2 °F 27.0 °F 71% 30.17 in 10.0 mi South 8.1 mph - N/A   Clear
8:15 AM 36.7 °F 30.5 °F 26.6 °F 67% 30.17 in 10.0 mi SSE 8.1 mph - N/A   Scattered Clouds
8:35 AM 37.8 °F 30.2 °F 27.3 °F 66% 30.17 in 10.0 mi South 11.5 mph 17.3 mph N/A   Scattered Clouds
8:55 AM 36.5 °F 27.4 °F 27.1 °F 69% 30.18 in 10.0 mi South 15.0 mph - N/A   Mostly Cloudy
9:15 AM 36.0 °F 28.5 °F 27.3 °F 71% 30.16 in 10.0 mi SSE 10.4 mph - N/A   Mostly Cloudy
9:35 AM 35.8 °F 30.1 °F 27.1 °F 71% 30.15 in 10.0 mi SSE 6.9 mph - N/A   Mostly Cloudy
9:55 AM 38.7 °F 31.8 °F 27.7 °F 65% 30.14 in 10.0 mi SSE 10.4 mph - N/A   Scattered Clouds
10:15 AM 38.5 °F 32.1 °F 27.1 °F 64% 30.14 in 10.0 mi South 9.2 mph - N/A Thunderstorm Scattered Clouds
10:35 AM 41.0 °F 34.3 °F 27.1 °F 58% 30.13 in 10.0 mi SSE 11.5 mph 18.4 mph N/A   Scattered Clouds
10:55 AM 41.5 °F 35.9 °F 26.1 °F 54% 30.13 in 10.0 mi South 9.2 mph 21.9 mph N/A   Scattered Clouds
11:15 AM 42.3 °F 35.5 °F 26.8 °F 54% 30.13 in 10.0 mi South 12.7 mph 19.6 mph N/A   Scattered Clouds
11:35 AM 43.7 °F 36.9 °F 26.2 °F 50% 30.13 in 10.0 mi SSE 13.8 mph 20.7 mph N/A   Scattered Clouds
11:55 AM 44.1 °F 37.1 °F 26.4 °F 50% 30.12 in 10.0 mi SSE 15.0 mph 23.0 mph N/A   Clear
12:15 PM 45.1 °F 38.4 °F 26.1 °F 47% 30.10 in 10.0 mi SSE 15.0 mph 24.2 mph N/A   Clear
12:35 PM 46.2 °F 40.1 °F 26.1 °F 45% 30.10 in 10.0 mi SSE 13.8 mph 21.9 mph N/A   Clear
12:55 PM 46.8 °F - 25.5 °F 43% 30.09 in 10.0 mi SSE 10.4 mph 20.7 mph N/A   Clear
1:15 PM 47.5 °F - 25.5 °F 42% 30.08 in 10.0 mi SSE 10.4 mph 21.9 mph N/A   Clear
1:35 PM 48.2 °F - 25.3 °F 41% 30.08 in 10.0 mi SSE 12.7 mph 21.9 mph N/A   Clear
1:55 PM 47.8 °F - 25.0 °F 41% 30.06 in 10.0 mi SSE 19.6 mph 24.2 mph N/A   Clear
2:15 PM 46.9 °F - 25.2 °F 43% 30.06 in 10.0 mi South 16.1 mph 23.0 mph N/A   Scattered Clouds
2:35 PM 49.5 °F - 24.3 °F 37% 30.05 in 10.0 mi SSE 18.4 mph 21.9 mph N/A   Mostly Cloudy
2:55 PM 48.9 °F - 24.3 °F 38% 30.05 in 10.0 mi SSE 11.5 mph 21.9 mph N/A   Scattered Clouds
3:15 PM 48.7 °F - 23.9 °F 38% 30.04 in 10.0 mi SSE 15.0 mph 23.0 mph N/A   Clear
3:35 PM 48.7 °F - 23.5 °F 37% 30.05 in 10.0 mi SSE 16.1 mph 24.2 mph N/A   Clear
3:55 PM 48.7 °F - 23.7 °F 38% 30.05 in 10.0 mi SSE 12.7 mph 18.4 mph N/A   Clear
4:15 PM 45.7 °F 42.0 °F 23.9 °F 42% 30.05 in 10.0 mi SSE 6.9 mph - N/A   Clear
4:35 PM 44.6 °F 39.7 °F 24.1 °F 44% 30.04 in 10.0 mi SSE 9.2 mph - N/A   Clear
4:55 PM 44.2 °F 39.2 °F 24.6 °F 46% 30.05 in 10.0 mi SSE 9.2 mph - N/A   Scattered Clouds
5:15 PM 43.5 °F 40.9 °F 24.8 °F 48% 30.05 in 10.0 mi South 4.6 mph - N/A   Mostly Cloudy
5:35 PM 42.3 °F 35.1 °F 25.7 °F 52% 30.05 in 10.0 mi SSE 13.8 mph - N/A   Mostly Cloudy
5:55 PM 41.4 °F 34.7 °F 25.9 °F 54% 30.05 in 10.0 mi SE 11.5 mph 20.7 mph N/A   Scattered Clouds
6:15 PM 39.6 °F 32.5 °F 25.9 °F 58% 30.05 in 10.0 mi SE 11.5 mph - N/A   Scattered Clouds
6:35 PM 37.6 °F 30.5 °F 26.1 °F 63% 30.06 in 10.0 mi SSE 10.4 mph - N/A   Scattered Clouds
6:55 PM 35.8 °F 28.8 °F 26.1 °F 68% 30.07 in 10.0 mi SE 9.2 mph - N/A   Mostly Cloudy
7:15 PM 34.7 °F 26.9 °F 26.2 °F 71% 30.08 in 10.0 mi SE 10.4 mph - N/A   Mostly Cloudy
7:35 PM 33.3 °F 27.1 °F 26.2 °F 75% 30.08 in 10.0 mi SSE 6.9 mph - N/A   Mostly Cloudy
7:55 PM 32.4 °F 26.0 °F 26.4 °F 79% 30.08 in 10.0 mi SE 6.9 mph - N/A   Mostly Cloudy
8:15 PM 31.3 °F 24.7 °F 25.7 °F 80% 30.09 in 10.0 mi SE 6.9 mph - N/A   Scattered Clouds
8:35 PM 29.8 °F 23.9 °F 25.5 °F 84% 30.11 in 10.0 mi SSE 5.8 mph - N/A   Scattered Clouds
8:55 PM 28.2 °F 22.0 °F 25.2 °F 88% 30.12 in 10.0 mi SSE 5.8 mph - N/A   Clear
9:15 PM 28.4 °F 22.2 °F 25.9 °F 90% 30.13 in 10.0 mi South 5.8 mph - N/A   Mostly Cloudy
9:35 PM 28.4 °F 23.3 °F 25.7 °F 90% 30.13 in 10.0 mi SW 4.6 mph - N/A   Mostly Cloudy
9:55 PM 29.7 °F 23.7 °F 26.6 °F 88% 30.13 in 10.0 mi SSW 5.8 mph - N/A   Overcast
10:15 PM 30.0 °F 22.4 °F 26.6 °F 87% 30.13 in 10.0 mi South 8.1 mph - N/A   Overcast
10:35 PM 30.2 °F 23.4 °F 27.1 °F 88% 30.13 in 10.0 mi South 6.9 mph - N/A   Overcast
10:55 PM 30.2 °F 23.4 °F 27.0 °F 88% 30.13 in 10.0 mi South 6.9 mph - N/A   Overcast
11:15 PM 29.8 °F 24.9 °F 26.4 °F 87% 30.11 in 10.0 mi SW 4.6 mph - N/A   Overcast
11:35 PM 29.3 °F 24.3 °F 26.6 °F 90% 30.12 in 10.0 mi SW 4.6 mph - N/A   Overcast
11:55 PM 29.7 °F 23.7 °F 26.6 °F 88% 30.12 in 10.0 mi SW 5.8 mph - N/A   Overcast